Time;durP1;ratioP1;P1;durP2;ratioP2;P2;SDS_P1;SDS_P2;PMS_P1;PMS_P2;Temp;Humidity;BMP_temperature;BMP_pressure;BME280_temperature;BME280_humidity;BME280_pressure;Samples;Min_cycle;Max_cycle;Signal;HPM_P1;HPM_P2
2023/03/14 00:02:19;;;;;;;0.50;0.45;;;;;;;;;;5051628;28;20313;-49
2023/03/14 00:04:45;;;;;;;0.52;0.50;;;;;;;;;;5051159;28;20225;-49
2023/03/14 00:07:12;;;;;;;1.95;0.50;;;;;;;;;;5049578;28;20533;-49
2023/03/14 00:09:38;;;;;;;0.80;0.60;;;;;;;;;;5065506;28;20190;-49
2023/03/14 00:12:04;;;;;;;0.45;0.45;;;;;;;;;;5050809;28;20207;-49
2023/03/14 00:14:30;;;;;;;0.65;0.50;;;;;;;;;;5053359;28;20272;-49
2023/03/14 00:16:56;;;;;;;1.25;0.47;;;;;;;;;;5058560;28;20181;-49
2023/03/14 00:19:22;;;;;;;0.50;0.50;;;;;;;;;;5058838;28;20207;-49
2023/03/14 00:21:48;;;;;;;0.40;0.40;;;;;;;;;;5048312;28;20266;-49
2023/03/14 00:24:14;;;;;;;0.88;0.55;;;;;;;;;;5061727;28;20171;-48
2023/03/14 00:26:40;;;;;;;0.60;0.50;;;;;;;;;;5066590;28;20225;-48
2023/03/14 00:29:05;;;;;;;0.50;0.50;;;;;;;;;;5052617;28;20179;-49
2023/03/14 00:31:31;;;;;;;1.33;0.40;;;;;;;;;;5051292;28;20230;-49
2023/03/14 00:33:57;;;;;;;0.40;0.40;;;;;;;;;;5059784;28;20206;-49
2023/03/14 00:36:23;;;;;;;1.02;0.40;;;;;;;;;;5050035;28;20186;-49
2023/03/14 00:38:50;;;;;;;0.40;0.40;;;;;;;;;;5071550;28;20473;-48
2023/03/14 00:41:18;;;;;;;0.55;0.50;;;;;;;;;;5049776;28;20195;-49
2023/03/14 00:43:44;;;;;;;0.75;0.38;;;;;;;;;;5047329;28;20184;-48
2023/03/14 00:46:10;;;;;;;0.40;0.40;;;;;;;;;;5057432;28;20492;-48
2023/03/14 00:48:36;;;;;;;0.50;0.50;;;;;;;;;;5064866;28;20182;-49
2023/03/14 00:51:02;;;;;;;0.60;0.38;;;;;;;;;;5043453;28;20192;-48
2023/03/14 00:53:28;;;;;;;0.70;0.70;;;;;;;;;;5060685;28;20210;-48
2023/03/14 00:55:54;;;;;;;0.60;0.50;;;;;;;;;;5059691;28;20185;-49
2023/03/14 00:58:20;;;;;;;0.60;0.38;;;;;;;;;;5054934;28;20179;-49
2023/03/14 01:00:46;;;;;;;0.30;0.30;;;;;;;;;;5061162;28;20186;-49
2023/03/14 01:03:13;;;;;;;0.40;0.40;;;;;;;;;;5049147;28;20244;-49
2023/03/14 01:05:39;;;;;;;0.40;0.40;;;;;;;;;;5049459;28;20193;-49
2023/03/14 01:08:06;;;;;;;0.30;0.30;;;;;;;;;;5058755;28;20193;-49
2023/03/14 01:10:32;;;;;;;0.30;0.30;;;;;;;;;;5052266;28;20218;-49
2023/03/14 01:12:58;;;;;;;0.40;0.40;;;;;;;;;;5053571;28;20248;-49
2023/03/14 01:15:24;;;;;;;0.60;0.50;;;;;;;;;;5059036;28;20197;-49
2023/03/14 01:17:50;;;;;;;0.30;0.30;;;;;;;;;;5050853;28;20231;-49
2023/03/14 01:20:16;;;;;;;0.30;0.30;;;;;;;;;;5050053;28;20179;-49
2023/03/14 01:22:43;;;;;;;0.25;0.20;;;;;;;;;;5054276;28;20241;-49
2023/03/14 01:25:13;;;;;;;0.40;0.40;;;;;;;;;;5044433;28;20477;-49
2023/03/14 01:27:39;;;;;;;0.30;0.30;;;;;;;;;;5055921;28;20564;-49
2023/03/14 01:30:07;;;;;;;0.20;0.20;;;;;;;;;;5059305;28;20340;-49
2023/03/14 01:32:33;;;;;;;0.30;0.30;;;;;;;;;;5067330;28;20190;-49
2023/03/14 01:34:59;;;;;;;0.40;0.40;;;;;;;;;;5039929;28;20570;-49
2023/03/14 01:37:25;;;;;;;0.47;0.47;;;;;;;;;;5039092;28;20183;-49
2023/03/14 01:39:51;;;;;;;0.40;0.40;;;;;;;;;;5053558;28;20692;-49
2023/03/14 01:42:17;;;;;;;0.47;0.38;;;;;;;;;;5047204;28;20258;-49
2023/03/14 01:44:51;;;;;;;0.30;0.30;;;;;;;;;;5049540;28;20688;-49
2023/03/14 01:47:17;;;;;;;0.30;0.30;;;;;;;;;;5044974;28;20191;-49
2023/03/14 01:49:44;;;;;;;0.50;0.40;;;;;;;;;;5050469;28;20233;-49
2023/03/14 01:52:17;;;;;;;0.30;0.30;;;;;;;;;;5047448;28;20286;-49
2023/03/14 01:54:52;;;;;;;0.45;0.45;;;;;;;;;;5057842;28;20183;-49
2023/03/14 01:57:21;;;;;;;0.30;0.30;;;;;;;;;;5037856;28;20613;-49
2023/03/14 01:59:54;;;;;;;0.30;0.30;;;;;;;;;;5036953;28;20199;-49
2023/03/14 02:02:21;;;;;;;0.40;0.32;;;;;;;;;;5047480;28;20477;-49
2023/03/14 02:04:47;;;;;;;0.30;0.30;;;;;;;;;;5053014;28;20197;-48
2023/03/14 02:07:15;;;;;;;0.73;0.40;;;;;;;;;;5056891;28;20198;-48
2023/03/14 02:09:41;;;;;;;0.30;0.30;;;;;;;;;;5053798;28;20206;-48
2023/03/14 02:12:12;;;;;;;0.40;0.40;;;;;;;;;;5057910;28;20210;-49
2023/03/14 02:14:38;;;;;;;0.30;0.30;;;;;;;;;;5058040;28;20198;-48
2023/03/14 02:17:06;;;;;;;0.40;0.30;;;;;;;;;;5046152;28;20492;-48
2023/03/14 02:19:51;;;;;;;0.38;0.38;;;;;;;;;;5050092;28;20217;-48
2023/03/14 02:22:17;;;;;;;0.40;0.40;;;;;;;;;;5056985;28;20194;-49
2023/03/14 02:24:46;;;;;;;0.40;0.30;;;;;;;;;;5060474;28;20175;-49
2023/03/14 02:27:13;;;;;;;0.40;0.30;;;;;;;;;;5062023;28;20182;-49
2023/03/14 02:29:59;;;;;;;0.40;0.40;;;;;;;;;;5063151;28;20279;-49
2023/03/14 02:32:26;;;;;;;0.20;0.20;;;;;;;;;;5070217;28;20195;-49
2023/03/14 02:34:55;;;;;;;0.35;0.35;;;;;;;;;;5047275;28;20217;-49
2023/03/14 02:37:22;;;;;;;0.45;0.40;;;;;;;;;;5051636;28;20318;-48
2023/03/14 02:39:49;;;;;;;0.20;0.20;;;;;;;;;;5050814;28;20183;-49
2023/03/14 02:42:15;;;;;;;0.15;0.15;;;;;;;;;;5054140;28;20183;-49
2023/03/14 02:44:51;;;;;;;0.20;0.20;;;;;;;;;;5062191;28;20196;-48
2023/03/14 02:47:18;;;;;;;0.20;0.20;;;;;;;;;;5054434;28;20491;-48
2023/03/14 02:49:44;;;;;;;0.20;0.20;;;;;;;;;;5043169;28;20175;-48
2023/03/14 02:52:10;;;;;;;0.25;0.25;;;;;;;;;;5053085;28;20225;-48
2023/03/14 02:54:36;;;;;;;0.45;0.45;;;;;;;;;;5046978;28;20547;-48
2023/03/14 02:57:03;;;;;;;0.20;0.20;;;;;;;;;;5059069;28;20559;-48
2023/03/14 02:59:29;;;;;;;0.30;0.30;;;;;;;;;;5055697;28;20262;-49
2023/03/14 03:01:55;;;;;;;0.30;0.30;;;;;;;;;;5053718;28;20277;-48
2023/03/14 03:04:21;;;;;;;0.65;0.10;;;;;;;;;;5054588;28;20188;-48
2023/03/14 03:06:46;;;;;;;0.25;0.25;;;;;;;;;;5064127;28;20193;-49
2023/03/14 03:09:12;;;;;;;0.30;0.30;;;;;;;;;;5048378;28;20511;-49
2023/03/14 03:11:38;;;;;;;0.30;0.30;;;;;;;;;;5046714;28;20187;-49
2023/03/14 03:14:04;;;;;;;0.20;0.20;;;;;;;;;;5059549;28;20560;-49
2023/03/14 03:16:30;;;;;;;0.10;0.10;;;;;;;;;;5054824;28;20221;-49
2023/03/14 03:18:56;;;;;;;0.40;0.40;;;;;;;;;;5064766;28;20420;-49
2023/03/14 03:21:23;;;;;;;0.40;0.30;;;;;;;;;;5040504;28;20214;-49
2023/03/14 03:23:49;;;;;;;0.47;0.47;;;;;;;;;;5058130;28;20183;-49
2023/03/14 03:26:15;;;;;;;0.47;0.45;;;;;;;;;;5058344;28;20198;-49
2023/03/14 03:28:41;;;;;;;0.30;0.30;;;;;;;;;;5062124;28;20263;-49
2023/03/14 03:31:07;;;;;;;0.70;0.40;;;;;;;;;;5064333;28;20205;-52
2023/03/14 03:33:33;;;;;;;0.20;0.20;;;;;;;;;;5053157;28;20199;-49
2023/03/14 03:35:59;;;;;;;0.30;0.30;;;;;;;;;;5051378;28;20183;-49
2023/03/14 03:38:25;;;;;;;0.20;0.20;;;;;;;;;;5056445;28;20191;-49
2023/03/14 03:40:51;;;;;;;0.32;0.32;;;;;;;;;;5053903;28;21043;-48
2023/03/14 03:43:18;;;;;;;0.65;0.20;;;;;;;;;;5052770;28;20178;-49
2023/03/14 03:45:43;;;;;;;0.43;0.32;;;;;;;;;;5044270;28;21033;-49
2023/03/14 03:48:09;;;;;;;0.68;0.40;;;;;;;;;;5050820;28;20542;-49
2023/03/14 03:50:35;;;;;;;1.02;0.40;;;;;;;;;;5053195;28;20179;-49
2023/03/14 03:53:01;;;;;;;0.40;0.30;;;;;;;;;;5049898;28;20588;-49
2023/03/14 03:55:28;;;;;;;0.40;0.20;;;;;;;;;;5043737;28;20188;-49
2023/03/14 03:57:54;;;;;;;0.20;0.20;;;;;;;;;;5051491;28;20597;-49
2023/03/14 04:00:20;;;;;;;1.27;0.30;;;;;;;;;;5051068;28;20187;-49
2023/03/14 04:02:46;;;;;;;0.65;0.40;;;;;;;;;;5047475;28;20187;-49
2023/03/14 04:05:11;;;;;;;0.47;0.47;;;;;;;;;;5050683;28;20183;-49
2023/03/14 04:07:37;;;;;;;0.30;0.30;;;;;;;;;;5042782;28;20267;-49
2023/03/14 04:10:03;;;;;;;0.40;0.40;;;;;;;;;;5054538;28;20452;-49
2023/03/14 04:12:29;;;;;;;0.68;0.50;;;;;;;;;;5057529;28;20272;-49
2023/03/14 04:14:55;;;;;;;0.30;0.30;;;;;;;;;;5043114;28;20615;-49
2023/03/14 04:17:21;;;;;;;1.00;0.40;;;;;;;;;;5054178;28;20491;-49
2023/03/14 04:19:50;;;;;;;0.30;0.30;;;;;;;;;;5051362;28;20286;-49
2023/03/14 04:22:16;;;;;;;0.20;0.20;;;;;;;;;;5068451;28;20842;-49
2023/03/14 04:24:42;;;;;;;0.45;0.35;;;;;;;;;;5062415;28;20188;-48
2023/03/14 04:27:08;;;;;;;0.28;0.20;;;;;;;;;;5044703;28;20188;-48
2023/03/14 04:29:34;;;;;;;0.40;0.40;;;;;;;;;;5039668;28;20191;-49
2023/03/14 04:32:00;;;;;;;0.30;0.30;;;;;;;;;;5054604;28;20210;-49
2023/03/14 04:34:26;;;;;;;0.43;0.22;;;;;;;;;;5052190;28;20269;-49
2023/03/14 04:36:51;;;;;;;0.50;0.35;;;;;;;;;;5042558;28;20188;-49
2023/03/14 04:39:17;;;;;;;0.73;0.30;;;;;;;;;;5051840;28;20175;-49
2023/03/14 04:41:45;;;;;;;0.20;0.20;;;;;;;;;;5052401;28;20221;-49
2023/03/14 04:44:11;;;;;;;0.30;0.28;;;;;;;;;;5058167;28;20265;-49
2023/03/14 04:46:37;;;;;;;1.55;0.43;;;;;;;;;;5053214;28;20182;-49
2023/03/14 04:49:03;;;;;;;0.82;0.40;;;;;;;;;;5058143;28;20541;-49
2023/03/14 04:51:29;;;;;;;2.25;0.30;;;;;;;;;;5062154;28;20187;-49
2023/03/14 04:53:55;;;;;;;0.95;0.30;;;;;;;;;;5059001;28;20184;-49
2023/03/14 04:56:21;;;;;;;0.68;0.50;;;;;;;;;;5058950;28;20186;-49
2023/03/14 04:58:47;;;;;;;0.43;0.30;;;;;;;;;;5053952;28;20648;-49
2023/03/14 05:01:13;;;;;;;0.47;0.40;;;;;;;;;;5043858;28;20184;-48
2023/03/14 05:03:39;;;;;;;1.08;0.52;;;;;;;;;;5055512;28;20565;-48
2023/03/14 05:06:05;;;;;;;1.48;0.57;;;;;;;;;;5060565;28;20542;-48
2023/03/14 05:08:31;;;;;;;1.17;0.70;;;;;;;;;;5044149;28;20697;-49
2023/03/14 05:10:57;;;;;;;1.45;0.68;;;;;;;;;;5060035;28;20217;-49
2023/03/14 05:13:24;;;;;;;0.80;0.50;;;;;;;;;;5051356;28;20207;-49
2023/03/14 05:15:50;;;;;;;0.77;0.50;;;;;;;;;;5051683;28;20181;-49
2023/03/14 05:18:17;;;;;;;2.35;0.38;;;;;;;;;;5046991;28;20701;-49
2023/03/14 05:20:43;;;;;;;1.38;0.50;;;;;;;;;;5049856;28;20288;-49
2023/03/14 05:23:09;;;;;;;1.15;0.60;;;;;;;;;;5063902;28;20270;-49
2023/03/14 05:25:35;;;;;;;2.03;0.88;;;;;;;;;;5050385;28;20538;-49
2023/03/14 05:28:01;;;;;;;2.40;0.90;;;;;;;;;;5035615;28;20202;-49
2023/03/14 05:30:28;;;;;;;2.20;0.85;;;;;;;;;;5041462;28;20203;-48
2023/03/14 05:32:54;;;;;;;1.02;0.82;;;;;;;;;;5051601;28;20222;-48
2023/03/14 05:35:20;;;;;;;3.88;1.23;;;;;;;;;;5050107;28;20330;-48
2023/03/14 05:37:46;;;;;;;2.75;0.80;;;;;;;;;;5041345;28;20187;-48
2023/03/14 05:40:12;;;;;;;1.48;0.63;;;;;;;;;;5052231;28;20219;-48
2023/03/14 05:42:38;;;;;;;1.85;0.90;;;;;;;;;;5045571;28;20194;-48
2023/03/14 05:45:04;;;;;;;3.00;1.33;;;;;;;;;;5052994;28;20179;-48
2023/03/14 05:47:29;;;;;;;4.25;0.82;;;;;;;;;;5043820;28;20183;-48
2023/03/14 05:49:55;;;;;;;2.50;1.20;;;;;;;;;;5049752;28;20191;-48
2023/03/14 05:52:22;;;;;;;1.58;0.75;;;;;;;;;;5048774;28;20282;-48
2023/03/14 05:54:48;;;;;;;3.63;1.00;;;;;;;;;;5042624;28;20175;-49
2023/03/14 05:57:14;;;;;;;2.63;1.00;;;;;;;;;;5041107;28;20186;-49
2023/03/14 05:59:39;;;;;;;5.85;0.98;;;;;;;;;;5042015;28;20195;-49
2023/03/14 06:02:05;;;;;;;3.22;1.10;;;;;;;;;;5050244;28;20213;-49
2023/03/14 06:04:31;;;;;;;4.30;1.45;;;;;;;;;;5048959;28;20269;-49
2023/03/14 06:06:57;;;;;;;2.35;1.00;;;;;;;;;;5065463;28;20179;-49
2023/03/14 06:09:23;;;;;;;2.47;0.80;;;;;;;;;;5048522;28;20187;-49
2023/03/14 06:11:49;;;;;;;2.97;1.10;;;;;;;;;;5049168;28;20218;-49
2023/03/14 06:14:15;;;;;;;2.35;0.90;;;;;;;;;;5058057;28;20168;-49
2023/03/14 06:16:41;;;;;;;2.15;0.90;;;;;;;;;;5048788;28;20486;-49
2023/03/14 06:19:07;;;;;;;4.78;1.20;;;;;;;;;;5043847;28;20191;-49
2023/03/14 06:21:33;;;;;;;0.75;0.65;;;;;;;;;;5050595;28;20190;-49
2023/03/14 06:23:59;;;;;;;3.55;0.95;;;;;;;;;;5055412;28;20233;-49
2023/03/14 06:26:25;;;;;;;4.03;1.15;;;;;;;;;;5054544;28;20174;-49
2023/03/14 06:28:50;;;;;;;2.78;1.00;;;;;;;;;;5045457;28;20262;-49
2023/03/14 06:31:17;;;;;;;1.15;0.80;;;;;;;;;;5051391;28;20433;-48
2023/03/14 06:33:42;;;;;;;1.95;0.80;;;;;;;;;;5056682;28;20210;-48
2023/03/14 06:36:09;;;;;;;1.38;0.90;;;;;;;;;;5050124;28;20237;-49
2023/03/14 06:38:35;;;;;;;2.03;0.88;;;;;;;;;;5061216;28;20178;-49
2023/03/14 06:41:04;;;;;;;2.38;1.08;;;;;;;;;;5047814;28;20577;-49
2023/03/14 06:43:30;;;;;;;1.77;0.98;;;;;;;;;;5053064;28;20206;-49
2023/03/14 06:45:56;;;;;;;2.08;1.00;;;;;;;;;;5058233;28;20232;-49
2023/03/14 06:48:22;;;;;;;2.72;1.10;;;;;;;;;;5061463;28;20295;-49
2023/03/14 06:50:48;;;;;;;0.95;0.55;;;;;;;;;;5053450;28;20812;-49
2023/03/14 06:53:14;;;;;;;1.83;0.80;;;;;;;;;;5059379;28;20220;-49
2023/03/14 06:55:40;;;;;;;2.22;0.70;;;;;;;;;;5059964;28;20182;-49
2023/03/14 06:58:07;;;;;;;2.38;1.17;;;;;;;;;;5061876;28;20262;-49
2023/03/14 07:00:34;;;;;;;2.35;0.88;;;;;;;;;;5048855;28;20205;-49
2023/03/14 07:03:00;;;;;;;2.45;1.13;;;;;;;;;;5047384;28;20294;-49
2023/03/14 07:05:25;;;;;;;1.98;0.80;;;;;;;;;;5043556;28;20192;-49
2023/03/14 07:07:51;;;;;;;1.33;0.80;;;;;;;;;;5042649;28;20626;-49
2023/03/14 07:10:17;;;;;;;2.60;1.00;;;;;;;;;;5066662;28;20289;-49
2023/03/14 07:12:43;;;;;;;1.52;0.70;;;;;;;;;;5056546;28;20464;-49
2023/03/14 07:15:09;;;;;;;1.90;0.85;;;;;;;;;;5054859;28;20187;-49
2023/03/14 07:17:35;;;;;;;2.13;0.80;;;;;;;;;;5058517;28;20262;-49
2023/03/14 07:20:04;;;;;;;2.00;0.90;;;;;;;;;;5055451;28;20651;-49
2023/03/14 07:22:29;;;;;;;3.83;1.00;;;;;;;;;;5062892;28;20189;-49
2023/03/14 07:24:55;;;;;;;2.17;0.82;;;;;;;;;;5057866;28;20202;-49
2023/03/14 07:27:21;;;;;;;0.70;0.60;;;;;;;;;;5056936;28;20269;-49
2023/03/14 07:29:47;;;;;;;0.88;0.60;;;;;;;;;;5059799;28;20205;-49
2023/03/14 07:32:14;;;;;;;1.35;0.70;;;;;;;;;;5043710;28;20210;-49
2023/03/14 07:34:41;;;;;;;1.48;0.68;;;;;;;;;;5049619;28;20240;-49
2023/03/14 07:37:07;;;;;;;1.45;0.88;;;;;;;;;;5060274;28;20179;-49
2023/03/14 07:39:32;;;;;;;3.20;0.70;;;;;;;;;;5054867;28;20455;-49
2023/03/14 07:41:58;;;;;;;0.57;0.55;;;;;;;;;;5047327;28;20199;-49
2023/03/14 07:44:24;;;;;;;1.77;0.80;;;;;;;;;;5049677;28;20179;-49
2023/03/14 07:46:50;;;;;;;1.35;0.60;;;;;;;;;;5046293;28;20560;-49
2023/03/14 07:49:16;;;;;;;1.15;0.80;;;;;;;;;;5044516;28;20267;-49
2023/03/14 07:51:43;;;;;;;2.20;0.70;;;;;;;;;;5047470;28;20554;-49
2023/03/14 07:54:09;;;;;;;1.10;0.60;;;;;;;;;;5067439;28;20199;-49
2023/03/14 07:56:35;;;;;;;1.88;0.60;;;;;;;;;;5040172;28;20181;-49
2023/03/14 07:59:01;;;;;;;1.13;0.63;;;;;;;;;;5045378;28;20184;-49
2023/03/14 08:01:27;;;;;;;0.85;0.60;;;;;;;;;;5055489;28;20186;-49
2023/03/14 08:03:53;;;;;;;1.00;0.60;;;;;;;;;;5047716;28;20179;-49
2023/03/14 08:06:19;;;;;;;0.85;0.40;;;;;;;;;;5038740;28;20554;-49
2023/03/14 08:08:45;;;;;;;1.98;0.90;;;;;;;;;;5054888;28;20182;-49
2023/03/14 08:11:11;;;;;;;1.80;0.60;;;;;;;;;;5048925;28;20648;-49
2023/03/14 08:13:37;;;;;;;1.35;0.40;;;;;;;;;;5067182;28;20223;-49
2023/03/14 08:16:04;;;;;;;1.48;0.50;;;;;;;;;;5043422;28;20259;-49
2023/03/14 08:18:30;;;;;;;1.30;0.60;;;;;;;;;;5053325;28;20221;-48
2023/03/14 08:20:56;;;;;;;0.93;0.70;;;;;;;;;;5053067;28;20274;-49
2023/03/14 08:23:22;;;;;;;1.15;0.60;;;;;;;;;;5069026;28;20254;-49
2023/03/14 08:25:51;;;;;;;0.95;0.45;;;;;;;;;;5044733;28;20262;-49
2023/03/14 08:28:17;;;;;;;1.38;0.60;;;;;;;;;;5052970;28;20479;-49
2023/03/14 08:30:43;;;;;;;0.95;0.60;;;;;;;;;;5051019;28;20207;-49
2023/03/14 08:33:10;;;;;;;1.48;0.57;;;;;;;;;;5053113;28;20215;-49
2023/03/14 08:35:37;;;;;;;1.02;0.70;;;;;;;;;;5049674;28;20441;-49
2023/03/14 08:38:03;;;;;;;0.95;0.50;;;;;;;;;;5061528;28;20186;-48
2023/03/14 08:40:29;;;;;;;0.95;0.80;;;;;;;;;;5048845;28;20184;-48
2023/03/14 08:42:55;;;;;;;1.25;0.63;;;;;;;;;;5048006;28;20191;-48
2023/03/14 08:45:21;;;;;;;1.38;0.55;;;;;;;;;;5051439;28;20171;-49
2023/03/14 08:47:47;;;;;;;1.00;0.65;;;;;;;;;;5040022;28;20904;-49
2023/03/14 08:50:13;;;;;;;0.85;0.45;;;;;;;;;;5049478;28;20183;-49
2023/03/14 08:52:40;;;;;;;2.35;0.47;;;;;;;;;;5049557;28;20324;-49
2023/03/14 08:55:07;;;;;;;1.30;0.50;;;;;;;;;;5053238;28;20185;-49
2023/03/14 08:57:33;;;;;;;0.55;0.47;;;;;;;;;;5042000;28;20180;-49
2023/03/14 08:59:59;;;;;;;1.10;0.50;;;;;;;;;;5051133;28;20222;-49
2023/03/14 09:02:25;;;;;;;1.33;0.50;;;;;;;;;;5051424;28;20249;-49
2023/03/14 09:04:51;;;;;;;0.63;0.50;;;;;;;;;;5039242;28;20192;-49
2023/03/14 09:07:18;;;;;;;0.52;0.47;;;;;;;;;;5048414;28;20183;-49
2023/03/14 09:09:44;;;;;;;0.57;0.47;;;;;;;;;;5052220;28;20211;-49
2023/03/14 09:12:10;;;;;;;0.98;0.43;;;;;;;;;;5040489;28;20203;-49
2023/03/14 09:14:35;;;;;;;1.20;0.50;;;;;;;;;;5058459;28;20462;-49
2023/03/14 09:17:01;;;;;;;0.65;0.50;;;;;;;;;;5041812;28;20188;-49
2023/03/14 09:19:27;;;;;;;0.88;0.65;;;;;;;;;;5056090;28;20217;-49
2023/03/14 09:21:54;;;;;;;0.98;0.50;;;;;;;;;;5040933;28;20172;-49
2023/03/14 09:24:20;;;;;;;0.88;0.55;;;;;;;;;;5042745;28;20182;-49
2023/03/14 09:26:46;;;;;;;0.32;0.32;;;;;;;;;;5053583;28;20610;-49
2023/03/14 09:29:12;;;;;;;0.90;0.60;;;;;;;;;;5051973;28;20179;-49
2023/03/14 09:31:38;;;;;;;0.90;0.50;;;;;;;;;;5053641;28;20423;-49
2023/03/14 09:34:04;;;;;;;0.52;0.50;;;;;;;;;;5043070;28;20199;-49
2023/03/14 09:36:30;;;;;;;1.42;0.47;;;;;;;;;;5046339;28;20209;-49
2023/03/14 09:38:56;;;;;;;0.40;0.40;;;;;;;;;;5046657;28;20183;-49
2023/03/14 09:41:22;;;;;;;0.40;0.32;;;;;;;;;;5047978;28;20178;-49
2023/03/14 09:43:50;;;;;;;0.88;0.50;;;;;;;;;;5043525;28;20191;-49
2023/03/14 09:46:16;;;;;;;0.82;0.32;;;;;;;;;;5050460;28;20607;-49
2023/03/14 09:48:43;;;;;;;0.55;0.40;;;;;;;;;;5041982;28;20273;-49
2023/03/14 09:51:17;;;;;;;0.73;0.50;;;;;;;;;;5055090;28;20471;-49
2023/03/14 09:53:45;;;;;;;0.30;0.30;;;;;;;;;;5061082;28;20209;-48
2023/03/14 09:56:16;;;;;;;0.40;0.40;;;;;;;;;;5052591;28;20225;-48
2023/03/14 09:58:44;;;;;;;0.45;0.40;;;;;;;;;;5061603;28;20193;-48
2023/03/14 10:01:15;;;;;;;0.38;0.38;;;;;;;;;;5046116;28;20183;-49
2023/03/14 10:03:41;;;;;;;1.45;0.65;;;;;;;;;;5054470;28;20270;-49
2023/03/14 10:06:12;;;;;;;0.63;0.60;;;;;;;;;;5053352;28;20228;-49
2023/03/14 10:08:44;;;;;;;0.70;0.40;;;;;;;;;;5038506;28;20195;-49
2023/03/14 10:11:15;;;;;;;0.30;0.30;;;;;;;;;;5052023;28;20257;-49
2023/03/14 10:14:05;;;;;;;0.65;0.40;;;;;;;;;;5068710;28;20210;-49
2023/03/14 10:16:32;;;;;;;0.38;0.30;;;;;;;;;;5059901;28;20174;-49
2023/03/14 10:19:02;;;;;;;1.20;0.50;;;;;;;;;;5048824;28;20554;-49
2023/03/14 10:21:29;;;;;;;0.50;0.40;;;;;;;;;;5059579;28;20228;-48
2023/03/14 10:24:07;;;;;;;0.82;0.70;;;;;;;;;;5063364;28;20218;-48
2023/03/14 10:26:35;;;;;;;0.43;0.43;;;;;;;;;;5053854;28;20309;-48
2023/03/14 10:29:02;;;;;;;1.75;0.43;;;;;;;;;;5048072;28;20484;-48
2023/03/14 10:31:28;;;;;;;0.77;0.40;;;;;;;;;;5053815;28;20229;-48
2023/03/14 10:33:58;;;;;;;0.60;0.50;;;;;;;;;;5066972;28;20265;-49
2023/03/14 10:36:28;;;;;;;0.20;0.20;;;;;;;;;;5046196;28;20186;-49
2023/03/14 10:39:12;;;;;;;0.47;0.40;;;;;;;;;;5046734;28;20176;-49
2023/03/14 10:41:38;;;;;;;0.73;0.60;;;;;;;;;;5048140;28;20199;-49
2023/03/14 10:44:05;;;;;;;0.30;0.30;;;;;;;;;;5042408;28;20180;-49
2023/03/14 10:46:32;;;;;;;0.45;0.45;;;;;;;;;;5051498;28;20183;-49
2023/03/14 10:48:58;;;;;;;0.45;0.45;;;;;;;;;;5047113;28;20212;-49
2023/03/14 10:51:26;;;;;;;0.65;0.30;;;;;;;;;;5055579;28;20218;-49
2023/03/14 10:54:03;;;;;;;0.55;0.40;;;;;;;;;;5049530;28;20478;-49
2023/03/14 10:56:34;;;;;;;0.65;0.50;;;;;;;;;;5056381;28;20198;-49
2023/03/14 10:59:00;;;;;;;0.50;0.30;;;;;;;;;;5048997;28;20225;-49
2023/03/14 11:01:37;;;;;;;0.40;0.40;;;;;;;;;;5052523;28;20631;-49
2023/03/14 11:04:06;;;;;;;0.50;0.50;;;;;;;;;;5053874;28;20196;-49
2023/03/14 11:06:36;;;;;;;0.50;0.40;;;;;;;;;;5066414;28;20262;-49
2023/03/14 11:09:08;;;;;;;1.17;0.50;;;;;;;;;;5055511;28;20265;-49
2023/03/14 11:11:34;;;;;;;0.98;0.40;;;;;;;;;;5047347;28;20263;-49
2023/03/14 11:14:02;;;;;;;1.08;0.60;;;;;;;;;;5049630;28;20329;-49
2023/03/14 11:16:44;;;;;;;4.03;1.50;;;;;;;;;;5057972;28;20593;-48
2023/03/14 11:19:22;;;;;;;3.00;1.77;;;;;;;;;;5046195;28;20593;-49
2023/03/14 11:21:48;;;;;;;6.95;2.58;;;;;;;;;;5045637;28;20219;-49
2023/03/14 11:24:33;;;;;;;5.25;2.80;;;;;;;;;;5068722;28;20555;-49
2023/03/14 11:27:17;;;;;;;8.48;2.60;;;;;;;;;;5060535;28;20184;-49
2023/03/14 11:29:52;;;;;;;7.88;2.40;;;;;;;;;;5060793;28;20202;-49
2023/03/14 11:32:22;;;;;;;11.55;2.80;;;;;;;;;;5052697;28;20264;-49
2023/03/14 11:34:53;;;;;;;8.10;2.67;;;;;;;;;;5055232;28;20443;-49
2023/03/14 11:37:24;;;;;;;6.72;2.80;;;;;;;;;;5053060;28;20191;-49
2023/03/14 11:39:57;;;;;;;5.85;2.45;;;;;;;;;;5060571;28;20558;-50
2023/03/14 11:42:23;;;;;;;4.72;2.72;;;;;;;;;;5043498;28;20252;-49
2023/03/14 11:44:49;;;;;;;5.63;2.53;;;;;;;;;;5056534;28;20198;-49
2023/03/14 11:47:18;;;;;;;6.18;2.70;;;;;;;;;;5047814;28;20193;-49
2023/03/14 11:49:53;;;;;;;5.45;2.47;;;;;;;;;;5057343;28;20248;-49
2023/03/14 11:52:22;;;;;;;6.38;2.63;;;;;;;;;;5056634;28;20293;-49
2023/03/14 11:54:54;;;;;;;6.90;3.35;;;;;;;;;;5058458;28;20497;-49
2023/03/14 11:57:21;;;;;;;5.63;2.90;;;;;;;;;;5058346;28;20183;-49
2023/03/14 11:59:56;;;;;;;9.05;2.65;;;;;;;;;;5046596;28;20266;-49
2023/03/14 12:02:31;;;;;;;5.75;2.60;;;;;;;;;;5069676;28;20182;-49
2023/03/14 12:05:17;;;;;;;7.22;2.83;;;;;;;;;;5053371;28;20236;-49
2023/03/14 12:08:09;;;;;;;10.15;3.15;;;;;;;;;;5048933;28;20557;-49
2023/03/14 12:10:44;;;;;;;9.45;3.38;;;;;;;;;;5045520;28;20199;-48
2023/03/14 12:13:11;;;;;;;8.40;2.85;;;;;;;;;;5059203;28;20628;-49
2023/03/14 12:15:40;;;;;;;6.47;2.75;;;;;;;;;;5066116;28;20648;-49
2023/03/14 12:18:26;;;;;;;6.28;3.03;;;;;;;;;;5066610;28;20187;-49
2023/03/14 12:20:55;;;;;;;9.85;3.40;;;;;;;;;;5043727;28;20274;-49
2023/03/14 12:23:21;;;;;;;7.57;3.05;;;;;;;;;;5045220;28;20197;-48
2023/03/14 12:25:47;;;;;;;6.90;3.05;;;;;;;;;;5051881;28;20233;-48
2023/03/14 12:28:19;;;;;;;8.75;2.92;;;;;;;;;;5056667;28;20640;-48
2023/03/14 12:30:45;;;;;;;5.45;2.88;;;;;;;;;;5060116;28;20263;-48
2023/03/14 12:33:11;;;;;;;6.13;3.17;;;;;;;;;;5058697;28;20191;-49
2023/03/14 12:35:57;;;;;;;7.68;2.60;;;;;;;;;;5042403;28;20570;-49
2023/03/14 12:38:42;;;;;;;7.88;2.72;;;;;;;;;;5052387;28;20198;-49
2023/03/14 12:41:26;;;;;;;6.70;2.90;;;;;;;;;;5057385;28;20193;-49
2023/03/14 12:43:52;;;;;;;6.43;2.90;;;;;;;;;;5054276;28;20232;-49
2023/03/14 12:46:18;;;;;;;5.53;2.72;;;;;;;;;;5061173;28;20196;-49
2023/03/14 12:48:46;;;;;;;5.43;3.05;;;;;;;;;;5063867;28;20186;-49
2023/03/14 12:51:32;;;;;;;4.63;2.35;;;;;;;;;;5067223;28;20724;-49
2023/03/14 12:53:58;;;;;;;4.90;2.55;;;;;;;;;;5050225;28;20222;-49
2023/03/14 12:56:50;;;;;;;6.00;2.40;;;;;;;;;;5070478;28;20194;-49
2023/03/14 12:59:28;;;;;;;4.30;2.58;;;;;;;;;;5057126;28;20580;-49
2023/03/14 13:02:02;;;;;;;6.93;2.70;;;;;;;;;;5056057;28;20232;-48
2023/03/14 13:04:36;;;;;;;5.85;2.50;;;;;;;;;;5056994;28;20631;-49
2023/03/14 13:07:02;;;;;;;8.63;2.50;;;;;;;;;;5044579;28;20179;-49
2023/03/14 13:09:34;;;;;;;3.88;2.20;;;;;;;;;;5046840;28;20265;-49
2023/03/14 13:12:03;;;;;;;5.18;2.20;;;;;;;;;;5045300;28;20582;-49
2023/03/14 13:14:30;;;;;;;5.38;2.60;;;;;;;;;;5053330;28;20199;-49
2023/03/14 13:16:56;;;;;;;4.30;2.35;;;;;;;;;;5048187;28;20552;-49
2023/03/14 13:19:24;;;;;;;4.07;2.55;;;;;;;;;;5062863;28;20401;-49
2023/03/14 13:21:51;;;;;;;4.25;2.08;;;;;;;;;;5052048;28;20203;-48
2023/03/14 13:24:24;;;;;;;5.88;2.22;;;;;;;;;;5050901;28;20229;-48
2023/03/14 13:26:52;;;;;;;4.03;1.92;;;;;;;;;;5046808;28;21960;-48
2023/03/14 13:29:26;;;;;;;3.72;2.17;;;;;;;;;;5045209;28;20259;-48
2023/03/14 13:31:58;;;;;;;4.80;1.90;;;;;;;;;;5058377;28;20240;-49
2023/03/14 13:34:26;;;;;;;3.33;2.00;;;;;;;;;;5043423;28;20502;-49
2023/03/14 13:36:53;;;;;;;4.10;1.70;;;;;;;;;;5045674;28;20180;-49
2023/03/14 13:39:24;;;;;;;4.15;1.80;;;;;;;;;;5060349;28;20282;-49
2023/03/14 13:41:50;;;;;;;4.60;2.30;;;;;;;;;;5046920;28;20269;-49
2023/03/14 13:44:42;;;;;;;3.10;1.73;;;;;;;;;;5039579;28;20491;-49
2023/03/14 13:47:13;;;;;;;3.75;1.90;;;;;;;;;;5052369;28;20597;-49
2023/03/14 13:49:39;;;;;;;3.22;1.80;;;;;;;;;;5050457;28;20244;-49
2023/03/14 13:52:21;;;;;;;4.15;2.20;;;;;;;;;;5050869;28;20548;-49
2023/03/14 13:54:47;;;;;;;4.00;1.63;;;;;;;;;;5038570;28;20175;-49
2023/03/14 13:57:13;;;;;;;2.50;1.30;;;;;;;;;;5043478;28;20185;-49
2023/03/14 13:59:39;;;;;;;3.40;1.60;;;;;;;;;;5041287;28;20482;-48
2023/03/14 14:02:13;;;;;;;3.70;1.77;;;;;;;;;;5056974;28;20178;-48
2023/03/14 14:04:39;;;;;;;3.35;1.75;;;;;;;;;;5040190;28;20186;-48
2023/03/14 14:07:09;;;;;;;2.75;1.80;;;;;;;;;;5045996;28;20440;-48
2023/03/14 14:09:39;;;;;;;1.60;1.25;;;;;;;;;;5046728;28;20184;-49
2023/03/14 14:12:31;;;;;;;3.08;1.40;;;;;;;;;;5043775;28;20238;-49
2023/03/14 14:15:02;;;;;;;3.53;2.17;;;;;;;;;;5052137;28;20215;-49
2023/03/14 14:17:31;;;;;;;3.03;1.52;;;;;;;;;;5042773;28;20286;-49
2023/03/14 14:19:57;;;;;;;1.63;1.30;;;;;;;;;;5048614;28;20201;-49
2023/03/14 14:22:24;;;;;;;2.28;1.45;;;;;;;;;;5043321;28;20189;-49
2023/03/14 14:24:51;;;;;;;1.98;1.35;;;;;;;;;;5044323;28;20202;-49
2023/03/14 14:27:25;;;;;;;4.85;2.00;;;;;;;;;;5043820;28;20180;-48
2023/03/14 14:30:02;;;;;;;3.28;1.38;;;;;;;;;;5043740;28;20325;-49
2023/03/14 14:32:34;;;;;;;3.25;1.70;;;;;;;;;;5042039;28;20455;-49
2023/03/14 14:35:01;;;;;;;2.45;1.50;;;;;;;;;;5040192;28;20180;-49
2023/03/14 14:37:29;;;;;;;2.45;1.40;;;;;;;;;;5047470;28;20179;-49
2023/03/14 14:39:56;;;;;;;2.42;1.40;;;;;;;;;;5051850;28;20180;-49
2023/03/14 14:42:25;;;;;;;3.35;1.60;;;;;;;;;;5051204;28;20183;-49
2023/03/14 14:44:52;;;;;;;3.05;1.50;;;;;;;;;;5043760;28;20183;-49
2023/03/14 14:47:23;;;;;;;3.33;1.52;;;;;;;;;;5057878;28;20260;-49
2023/03/14 14:49:51;;;;;;;2.92;1.30;;;;;;;;;;5054639;28;20277;-49